Time;durP1;ratioP1;P1;durP2;ratioP2;P2;SDS_P1;SDS_P2;PMS_P1;PMS_P2;Temp;Humidity;BMP_temperature;BMP_pressure;BME280_temperature;BME280_humidity;BME280_pressure;Samples;Min_cycle;Max_cycle;Signal;HPM_P1;HPM_P2
2023/01/05 00:00:11;;;;;;;22.40;4.80;;;10.20;99.90;;;;;;5003681;28;20095;-73
2023/01/05 00:02:44;;;;;;;19.65;4.13;;;10.20;99.90;;;;;;5006102;28;20041;-72
2023/01/05 00:05:10;;;;;;;22.90;3.75;;;10.30;99.90;;;;;;5004109;28;20068;-74
2023/01/05 00:07:43;;;;;;;20.75;3.45;;;10.20;99.90;;;;;;5041536;28;20076;-74
2023/01/05 00:22:29;;;;;;;18.85;5.10;;;10.20;99.90;;;;;;5041087;28;20052;-74
2023/01/05 00:24:11;;;;;;;22.52;4.93;;;10.30;99.90;;;;;;5031578;28;20114;-73
2023/01/05 00:26:37;;;;;;;21.23;3.85;;;10.30;99.90;;;;;;5026562;28;20717;-71
2023/01/05 00:29:09;;;;;;;23.65;4.55;;;10.30;99.90;;;;;;5046616;28;20045;-74
2023/01/05 00:31:35;;;;;;;21.08;4.93;;;10.30;99.90;;;;;;5022820;28;20048;-74
2023/01/05 00:34:07;;;;;;;23.20;5.45;;;10.20;99.90;;;;;;5047605;28;20167;-73
2023/01/05 00:36:33;;;;;;;22.00;5.55;;;10.20;99.90;;;;;;5041769;28;20045;-74
2023/01/05 00:39:05;;;;;;;26.88;5.15;;;10.10;99.90;;;;;;5028908;28;20724;-74
2023/01/05 00:41:31;;;;;;;25.77;5.32;;;10.10;99.90;;;;;;5026435;28;20056;-73
2023/01/05 00:44:03;;;;;;;19.55;4.38;;;10.10;99.90;;;;;;5025688;28;20094;-74
2023/01/05 00:46:36;;;;;;;20.45;4.30;;;10.00;99.90;;;;;;5024183;28;20044;-76
2023/01/05 00:49:08;;;;;;;25.25;5.13;;;10.00;99.90;;;;;;5029509;28;20059;-74
2023/01/05 00:51:48;;;;;;;32.75;5.95;;;10.00;99.90;;;;;;5002993;28;20048;-74
2023/01/05 00:54:20;;;;;;;23.35;4.28;;;10.00;99.90;;;;;;4992214;28;20569;-73
2023/01/05 00:56:49;;;;;;;18.95;4.60;;;10.00;99.90;;;;;;4999286;28;20041;-73
2023/01/05 00:59:22;;;;;;;23.23;6.00;;;10.00;99.90;;;;;;4978929;28;20050;-73
2023/01/05 01:01:50;;;;;;;23.33;4.15;;;10.10;99.90;;;;;;4989282;28;20096;-74
2023/01/05 01:04:23;;;;;;;23.25;4.95;;;10.10;99.90;;;;;;5019423;28;20482;-74
2023/01/05 01:06:49;;;;;;;23.67;4.90;;;10.10;99.90;;;;;;4994164;28;20042;-73
2023/01/05 01:09:22;;;;;;;27.35;6.93;;;10.10;99.90;;;;;;4987660;28;20049;-72
2023/01/05 01:11:48;;;;;;;23.15;4.20;;;10.20;99.90;;;;;;4995999;28;20104;-76
2023/01/05 01:14:20;;;;;;;17.63;4.50;;;10.20;99.90;;;;;;5010492;28;20115;-75
2023/01/05 01:16:46;;;;;;;23.77;4.07;;;10.20;99.90;;;;;;5000613;28;20435;-72
2023/01/05 01:19:28;;;;;;;26.73;4.35;;;10.20;99.90;;;;;;5013261;28;20120;-74
2023/01/05 01:21:54;;;;;;;18.40;5.03;;;10.20;99.90;;;;;;4992103;28;20049;-74
2023/01/05 01:24:31;;;;;;;18.33;3.63;;;10.20;99.90;;;;;;5018086;28;20047;-74
2023/01/05 01:27:03;;;;;;;22.73;4.93;;;10.20;99.90;;;;;;5010964;28;20478;-73
2023/01/05 01:29:29;;;;;;;18.95;4.57;;;10.20;99.90;;;;;;5011171;28;20060;-76
2023/01/05 01:32:01;;;;;;;16.60;3.95;;;10.20;99.90;;;;;;5011592;28;20128;-73
2023/01/05 01:34:33;;;;;;;24.67;4.10;;;10.20;99.90;;;;;;5011380;28;20128;-73
2023/01/05 01:37:06;;;;;;;21.42;4.30;;;10.20;99.90;;;;;;4994021;28;20042;-75
2023/01/05 01:39:39;;;;;;;14.65;3.83;;;10.20;99.90;;;;;;5011417;28;20033;-75
2023/01/05 01:42:12;;;;;;;19.60;4.78;;;10.20;99.90;;;;;;5010158;28;20041;-74
2023/01/05 01:44:51;;;;;;;24.08;5.28;;;10.20;99.90;;;;;;5006782;28;20503;-75
2023/01/05 01:47:41;;;;;;;16.77;4.18;;;10.20;99.90;;;;;;4992521;28;20399;-76
2023/01/05 01:50:18;;;;;;;25.88;4.32;;;10.20;99.90;;;;;;5024778;28;20390;-75
2023/01/05 01:53:08;;;;;;;20.70;4.80;;;10.20;99.90;;;;;;5031583;28;20128;-74
2023/01/05 01:55:35;;;;;;;22.02;4.45;;;10.20;99.90;;;;;;5013909;28;20087;-74
2023/01/05 01:58:12;;;;;;;17.63;3.88;;;10.20;99.90;;;;;;5030775;28;20096;-73
2023/01/05 02:00:42;;;;;;;26.50;4.07;;;10.20;99.90;;;;;;5030607;28;20041;-73
2023/01/05 02:03:15;;;;;;;18.77;3.40;;;10.20;99.90;;;;;;5030369;28;20167;-73
2023/01/05 02:05:41;;;;;;;18.23;4.57;;;10.20;99.90;;;;;;5013314;28;20033;-74
2023/01/05 02:08:30;;;;;;;23.85;4.30;;;10.20;99.90;;;;;;5013515;28;20041;-73
2023/01/05 02:11:27;;;;;;;15.80;3.90;;;10.20;99.90;;;;;;5009710;28;20046;-74
2023/01/05 02:14:20;;;;;;;21.10;4.88;;;10.20;99.90;;;;;;5013117;28;20041;-74
2023/01/05 02:17:15;;;;;;;19.38;3.90;;;10.20;99.90;;;;;;5011245;28;20100;-74
2023/01/05 02:20:09;;;;;;;24.95;4.22;;;10.20;99.90;;;;;;5013123;28;20506;-73
2023/01/05 02:22:47;;;;;;;15.90;3.35;;;10.20;99.90;;;;;;5013102;28;20528;-73
2023/01/05 02:25:49;;;;;;;21.00;4.07;;;10.20;99.90;;;;;;5012498;28;20064;-75
2023/01/05 02:28:49;;;;;;;18.23;4.47;;;10.10;99.90;;;;;;5012652;28;20359;-74
2023/01/05 02:31:35;;;;;;;21.88;4.40;;;10.10;99.90;;;;;;4996364;28;20041;-73
2023/01/05 02:34:20;;;;;;;21.52;3.85;;;10.10;99.90;;;;;;5031007;28;20116;-73
2023/01/05 02:36:53;;;;;;;18.75;4.32;;;10.10;99.90;;;;;;4996452;28;20047;-74
2023/01/05 02:39:51;;;;;;;24.75;4.20;;;10.10;99.90;;;;;;5012453;28;20099;-74
2023/01/05 02:42:31;;;;;;;20.92;4.53;;;10.10;99.90;;;;;;5005456;28;20513;-73
2023/01/05 02:45:04;;;;;;;20.63;3.95;;;10.10;99.90;;;;;;5030022;28;20437;-73
2023/01/05 02:47:50;;;;;;;24.52;4.93;;;10.10;99.90;;;;;;5012995;28;20047;-73
2023/01/05 02:50:30;;;;;;;18.58;3.80;;;10.10;99.90;;;;;;5030088;28;20058;-75
2023/01/05 02:53:27;;;;;;;20.33;4.43;;;10.00;99.90;;;;;;5012203;28;20052;-73
2023/01/05 02:56:10;;;;;;;22.73;3.80;;;10.10;99.90;;;;;;4996500;28;20045;-75
2023/01/05 02:58:52;;;;;;;30.00;5.72;;;10.10;99.90;;;;;;5012691;28;20533;-73
2023/01/05 03:01:27;;;;;;;18.55;3.72;;;10.10;99.90;;;;;;5012901;28;20037;-73
2023/01/05 03:04:06;;;;;;;19.40;4.68;;;10.10;99.90;;;;;;5012943;28;20381;-73
2023/01/05 03:06:45;;;;;;;21.52;4.57;;;10.10;99.90;;;;;;5029798;28;20120;-74
2023/01/05 03:09:24;;;;;;;25.58;5.25;;;10.10;99.90;;;;;;5030404;28;20848;-74
2023/01/05 03:15:06;;;;;;;22.05;4.40;;;10.10;99.90;;;;;;5029414;28;20064;-74
2023/01/05 03:17:45;;;;;;;25.63;4.45;;;10.10;99.90;;;;;;5012515;28;20057;-74
2023/01/05 03:20:17;;;;;;;19.08;5.05;;;10.10;99.90;;;;;;5011753;28;20042;-73
2023/01/05 03:37:42;;;;;;;25.67;5.40;;;10.00;99.90;;;;;;4988181;28;20056;-74
2023/01/05 03:40:17;;;;;;;21.33;4.43;;;10.00;99.90;;;;;;5013960;28;20506;-76
2023/01/05 03:42:50;;;;;;;23.50;4.13;;;10.00;99.90;;;;;;5015989;28;20041;-75
2023/01/05 03:45:17;;;;;;;28.90;6.15;;;10.00;99.90;;;;;;5034207;28;20385;-73
2023/01/05 03:47:49;;;;;;;26.80;4.85;;;10.00;99.90;;;;;;5016362;28;20398;-75
2023/01/05 03:50:16;;;;;;;26.17;6.22;;;10.00;99.90;;;;;;5034464;28;20057;-74
2023/01/05 03:53:01;;;;;;;22.80;5.60;;;10.00;99.90;;;;;;4999176;28;20057;-75
2023/01/05 03:55:27;;;;;;;30.13;5.90;;;10.00;99.90;;;;;;5015686;28;20486;-75
2023/01/05 03:58:00;;;;;;;23.25;4.55;;;10.00;99.90;;;;;;4999904;28;20125;-75
2023/01/05 04:00:26;;;;;;;19.38;4.57;;;10.00;99.90;;;;;;5016154;28;20046;-75
2023/01/05 04:02:58;;;;;;;29.13;5.32;;;10.00;99.90;;;;;;5016043;28;20363;-74
2023/01/05 04:05:24;;;;;;;25.70;4.68;;;10.00;99.90;;;;;;5033752;28;20038;-74
2023/01/05 04:07:56;;;;;;;23.58;5.10;;;10.00;99.90;;;;;;5016181;28;20038;-75
2023/01/05 04:10:22;;;;;;;26.83;5.35;;;10.00;99.90;;;;;;5033279;28;20124;-75
2023/01/05 04:13:00;;;;;;;18.38;4.40;;;10.00;99.90;;;;;;4999487;28;20133;-75
2023/01/05 04:15:26;;;;;;;17.73;3.72;;;10.00;99.90;;;;;;5015984;28;20128;-75
2023/01/05 04:17:58;;;;;;;23.63;4.45;;;10.00;99.90;;;;;;5014979;28;20833;-75
2023/01/05 04:20:24;;;;;;;24.40;5.30;;;9.90;99.90;;;;;;5033566;28;20044;-75
2023/01/05 04:22:56;;;;;;;25.67;4.72;;;10.00;99.90;;;;;;5014850;28;20455;-74
2023/01/05 04:25:25;;;;;;;23.73;4.72;;;9.90;99.90;;;;;;5033343;28;20048;-76
2023/01/05 04:27:57;;;;;;;26.05;5.10;;;9.90;99.90;;;;;;5033041;28;20128;-73
2023/01/05 04:30:24;;;;;;;23.33;4.75;;;9.90;99.90;;;;;;5015331;28;20095;-75
2023/01/05 04:32:56;;;;;;;23.17;4.43;;;9.90;99.90;;;;;;5015745;28;20057;-72
2023/01/05 04:35:22;;;;;;;26.02;4.57;;;9.80;99.90;;;;;;4998808;28;20081;-75
2023/01/05 04:37:54;;;;;;;29.05;5.43;;;9.90;99.90;;;;;;5032263;28;20084;-74
2023/01/05 04:40:20;;;;;;;26.38;5.15;;;9.90;99.90;;;;;;5015134;28;20120;-76
2023/01/05 04:42:52;;;;;;;23.17;4.97;;;9.90;99.90;;;;;;5032967;28;20116;-74
2023/01/05 04:45:18;;;;;;;21.27;4.22;;;9.90;99.90;;;;;;5014562;28;20537;-75
2023/01/05 04:47:50;;;;;;;20.67;3.90;;;9.90;99.90;;;;;;4999015;28;20128;-75
2023/01/05 04:50:16;;;;;;;23.90;4.70;;;9.90;99.90;;;;;;5012757;28;20502;-75
2023/01/05 04:53:02;;;;;;;22.45;5.22;;;9.90;99.90;;;;;;5010964;28;20063;-74
2023/01/05 04:55:28;;;;;;;23.63;5.20;;;9.90;99.90;;;;;;5011788;28;20429;-76
2023/01/05 04:58:00;;;;;;;18.23;4.18;;;9.90;99.90;;;;;;5011639;28;20045;-74
2023/01/05 05:00:33;;;;;;;27.60;6.78;;;9.90;99.90;;;;;;5011819;28;20502;-76
2023/01/05 05:03:05;;;;;;;25.77;5.07;;;9.90;99.90;;;;;;4995215;28;20046;-75
2023/01/05 05:05:31;;;;;;;20.88;4.32;;;9.90;99.90;;;;;;5011000;28;20084;-76
2023/01/05 05:08:03;;;;;;;28.25;6.07;;;9.90;99.90;;;;;;4995525;28;20045;-75
2023/01/05 05:10:29;;;;;;;24.00;5.15;;;9.80;99.90;;;;;;5012940;28;20045;-75
2023/01/05 05:13:01;;;;;;;27.17;4.00;;;9.90;99.90;;;;;;5010148;28;20060;-75
2023/01/05 05:15:27;;;;;;;27.40;4.72;;;9.90;99.90;;;;;;4994837;28;20056;-76
2023/01/05 05:17:59;;;;;;;31.50;5.15;;;9.90;99.90;;;;;;5012359;28;20042;-76
2023/01/05 05:20:25;;;;;;;25.90;4.35;;;9.90;99.90;;;;;;5011766;28;20049;-77
2023/01/05 05:22:57;;;;;;;21.67;4.32;;;9.80;99.90;;;;;;5012308;28;20045;-76
2023/01/05 05:25:23;;;;;;;22.80;5.00;;;9.80;99.90;;;;;;5012288;28;20053;-77
2023/01/05 05:27:55;;;;;;;25.75;4.60;;;9.80;99.90;;;;;;4994238;28;20046;-76
2023/01/05 05:30:21;;;;;;;25.90;5.07;;;9.80;99.90;;;;;;4995085;28;20041;-76
2023/01/05 05:32:53;;;;;;;20.30;4.93;;;9.80;99.90;;;;;;4994738;28;20505;-75
2023/01/05 05:35:19;;;;;;;21.48;5.28;;;9.80;99.90;;;;;;4994744;28;20475;-76
2023/01/05 05:37:51;;;;;;;22.83;5.57;;;9.80;99.90;;;;;;4994505;28;20046;-77
2023/01/05 05:40:17;;;;;;;28.80;5.75;;;9.80;99.90;;;;;;4994375;28;20042;-73
2023/01/05 05:42:49;;;;;;;24.40;4.93;;;9.80;99.90;;;;;;4994364;28;20493;-73
2023/01/05 05:45:15;;;;;;;29.60;5.80;;;9.80;99.90;;;;;;5011696;28;20045;-72
2023/01/05 05:47:53;;;;;;;28.58;5.47;;;9.80;99.90;;;;;;4993414;28;20068;-72
2023/01/05 05:50:19;;;;;;;31.08;5.20;;;9.70;99.90;;;;;;5023156;28;20089;-72
2023/01/05 05:53:05;;;;;;;30.10;4.47;;;9.80;99.90;;;;;;5013535;28;20056;-73
2023/01/05 05:55:33;;;;;;;24.95;4.90;;;9.80;99.90;;;;;;5012890;28;20128;-73
2023/01/05 05:58:05;;;;;;;32.80;5.35;;;9.70;99.90;;;;;;5031491;28;20371;-73
2023/01/05 06:00:31;;;;;;;28.77;5.15;;;9.80;99.90;;;;;;5031345;28;20041;-74
2023/01/05 06:03:03;;;;;;;23.75;5.88;;;9.80;99.90;;;;;;5012161;28;20481;-74
2023/01/05 06:05:29;;;;;;;31.35;5.18;;;9.70;99.90;;;;;;5030746;28;20479;-75
2023/01/05 06:08:01;;;;;;;24.05;5.30;;;9.70;99.90;;;;;;5012788;28;20098;-73
2023/01/05 06:10:27;;;;;;;25.15;5.00;;;9.70;99.90;;;;;;5013380;28;20060;-73
2023/01/05 06:13:00;;;;;;;28.40;5.53;;;9.70;99.90;;;;;;5013234;28;20045;-73
2023/01/05 06:15:26;;;;;;;26.77;6.35;;;9.70;99.90;;;;;;5029868;28;20041;-73
2023/01/05 06:17:58;;;;;;;24.63;4.43;;;9.70;99.90;;;;;;5030865;28;20049;-74
2023/01/05 06:20:24;;;;;;;34.08;6.32;;;9.60;99.90;;;;;;5030896;28;20116;-74
2023/01/05 06:22:56;;;;;;;29.98;5.85;;;9.60;99.90;;;;;;5030210;28;20582;-73
2023/01/05 06:25:22;;;;;;;19.27;4.72;;;9.60;99.90;;;;;;5013162;28;20046;-74
2023/01/05 06:27:54;;;;;;;28.25;5.28;;;9.60;99.90;;;;;;5013307;28;20056;-74
2023/01/05 06:30:20;;;;;;;24.55;4.88;;;9.60;99.90;;;;;;5012124;28;20068;-73
2023/01/05 06:32:59;;;;;;;36.20;7.32;;;9.60;99.90;;;;;;5030671;28;20465;-74
2023/01/05 06:35:25;;;;;;;37.67;6.20;;;9.50;99.90;;;;;;5012884;28;20487;-73
2023/01/05 06:37:57;;;;;;;22.02;5.25;;;9.60;99.90;;;;;;5030112;28;20042;-73
2023/01/05 06:40:23;;;;;;;20.95;5.00;;;9.60;99.90;;;;;;5012944;28;20037;-74
2023/01/05 06:42:55;;;;;;;34.78;6.82;;;9.50;99.90;;;;;;5029294;28;20033;-75
2023/01/05 06:45:21;;;;;;;23.35;5.25;;;9.50;99.90;;;;;;5030371;28;20482;-75
2023/01/05 06:47:53;;;;;;;30.40;6.20;;;9.50;99.90;;;;;;4996454;28;20045;-75
2023/01/05 06:50:19;;;;;;;25.35;5.88;;;9.50;99.90;;;;;;5008852;28;20061;-73
2023/01/05 06:53:04;;;;;;;26.58;5.32;;;9.50;99.90;;;;;;5009653;28;20540;-75
2023/01/05 06:55:30;;;;;;;25.15;6.30;;;9.50;99.90;;;;;;5011112;28;20053;-77
2023/01/05 06:58:02;;;;;;;25.67;5.72;;;9.50;99.90;;;;;;5010417;28;20172;-76
2023/01/05 07:00:28;;;;;;;31.52;6.75;;;9.50;99.90;;;;;;5008985;28;20038;-74
2023/01/05 07:03:00;;;;;;;25.42;5.20;;;9.50;99.90;;;;;;5009571;28;20037;-73
2023/01/05 07:05:26;;;;;;;24.23;5.88;;;9.50;99.90;;;;;;5010105;28;20116;-74
2023/01/05 07:07:58;;;;;;;28.48;6.32;;;9.50;99.90;;;;;;5009484;28;20168;-74
2023/01/05 07:10:24;;;;;;;25.52;5.78;;;9.50;99.90;;;;;;5010304;28;20049;-69
2023/01/05 07:12:56;;;;;;;24.55;4.72;;;9.50;99.90;;;;;;5008910;28;20418;-75
2023/01/05 07:15:23;;;;;;;21.75;4.40;;;9.60;99.90;;;;;;5012527;28;20046;-76
2023/01/05 07:18:02;;;;;;;29.63;5.85;;;9.60;99.90;;;;;;5013333;28;20069;-73
2023/01/05 07:20:28;;;;;;;29.30;5.03;;;9.60;99.90;;;;;;4997177;28;20042;-75
2023/01/05 07:23:00;;;;;;;24.35;4.72;;;9.60;99.90;;;;;;5013169;28;20041;-74
2023/01/05 07:25:30;;;;;;;22.50;4.15;;;9.60;99.90;;;;;;5014262;28;20044;-74
2023/01/05 07:28:02;;;;;;;29.60;5.30;;;9.60;99.90;;;;;;5016503;28;20620;-74
2023/01/05 07:30:28;;;;;;;20.50;4.28;;;9.60;99.90;;;;;;5034158;28;20052;-74
2023/01/05 07:33:04;;;;;;;26.33;6.25;;;9.60;99.90;;;;;;5033554;28;20116;-74
2023/01/05 07:35:31;;;;;;;26.65;5.13;;;9.60;99.90;;;;;;5016352;28;20045;-74
2023/01/05 07:38:03;;;;;;;32.30;5.00;;;9.60;99.90;;;;;;5016215;28;20797;-72
2023/01/05 07:40:29;;;;;;;28.98;4.95;;;9.60;99.90;;;;;;5033183;28;20120;-73
2023/01/05 07:43:01;;;;;;;28.05;5.78;;;9.60;99.90;;;;;;4999977;28;20132;-73
2023/01/05 07:45:27;;;;;;;29.95;5.22;;;9.60;99.90;;;;;;5016240;28;20480;-75
2023/01/05 07:47:59;;;;;;;35.17;6.78;;;9.60;99.90;;;;;;5015470;28;20081;-74
2023/01/05 07:50:25;;;;;;;25.23;5.93;;;9.60;99.90;;;;;;5014939;28;20134;-75
2023/01/05 07:53:11;;;;;;;22.65;4.22;;;9.60;99.90;;;;;;5012163;28;20390;-75
2023/01/05 07:55:37;;;;;;;23.23;4.88;;;9.60;99.90;;;;;;5032998;28;20045;-74
2023/01/05 07:58:09;;;;;;;28.80;5.05;;;9.60;99.90;;;;;;5044585;28;20084;-73
2023/01/05 08:00:42;;;;;;;34.40;5.93;;;9.60;99.90;;;;;;5035050;28;20378;-73
2023/01/05 08:03:14;;;;;;;22.08;5.15;;;9.60;99.90;;;;;;5053429;28;20064;-73
2023/01/05 08:05:40;;;;;;;32.17;5.65;;;9.60;99.90;;;;;;5053302;28;20045;-73
2023/01/05 08:08:12;;;;;;;42.97;12.82;;;9.60;99.90;;;;;;5035816;28;20038;-74
2023/01/05 08:10:39;;;;;;;36.95;12.82;;;9.60;99.90;;;;;;5024374;28;20072;-73
2023/01/05 08:15:59;;;;;;;26.58;6.45;;;9.60;99.90;;;;;;5027367;28;20088;-73
2023/01/05 08:18:32;;;;;;;25.95;6.88;;;9.60;99.90;;;;;;5032751;28;20045;-73
2023/01/05 08:21:03;;;;;;;33.83;11.02;;;9.50;99.90;;;;;;5033980;28;20041;-74
2023/01/05 08:23:36;;;;;;;21.13;5.47;;;9.60;99.90;;;;;;5033355;28;20644;-74
2023/01/05 08:26:13;;;;;;;29.67;5.88;;;9.60;99.90;;;;;;5052099;28;20440;-74
2023/01/05 08:28:45;;;;;;;27.27;5.40;;;9.60;99.90;;;;;;5034266;28;20076;-74
2023/01/05 08:31:15;;;;;;;23.40;6.18;;;9.50;99.90;;;;;;5052631;28;20091;-74
2023/01/05 08:33:48;;;;;;;33.65;9.38;;;9.50;99.90;;;;;;5027128;28;20041;-74
2023/01/05 08:36:19;;;;;;;33.42;10.48;;;9.50;99.90;;;;;;5012019;28;20034;-73
2023/01/05 08:39:00;;;;;;;27.13;9.43;;;9.50;99.90;;;;;;5014221;28;20063;-73
2023/01/05 08:41:37;;;;;;;22.35;4.75;;;9.50;99.90;;;;;;5030388;28;20382;-74
2023/01/05 08:44:15;;;;;;;29.13;8.27;;;9.50;99.90;;;;;;4996869;28;20702;-73
2023/01/05 08:46:42;;;;;;;25.80;5.55;;;9.60;99.90;;;;;;5020116;28;20038;-74
2023/01/05 08:49:15;;;;;;;21.05;4.70;;;9.60;99.90;;;;;;5030861;28;20041;-73
2023/01/05 08:52:01;;;;;;;32.70;8.13;;;9.60;99.90;;;;;;4996028;28;20092;-74
2023/01/05 08:54:27;;;;;;;27.10;5.65;;;9.60;99.90;;;;;;4998133;28;20091;-73
2023/01/05 08:56:53;;;;;;;29.83;6.20;;;9.60;99.90;;;;;;5013648;28;20073;-73
2023/01/05 08:59:25;;;;;;;20.52;4.93;;;9.70;99.90;;;;;;5032252;28;20049;-73
2023/01/05 09:01:51;;;;;;;21.95;6.60;;;10.00;99.90;;;;;;5014420;28;20037;-73
2023/01/05 09:04:23;;;;;;;23.27;4.53;;;10.20;99.90;;;;;;5013891;28;20041;-73
2023/01/05 09:06:49;;;;;;;25.58;6.57;;;10.20;99.90;;;;;;5030759;28;20060;-73
2023/01/05 09:09:23;;;;;;;23.67;8.43;;;10.10;99.90;;;;;;4997955;28;20053;-73
2023/01/05 09:11:49;;;;;;;23.90;10.35;;;10.10;99.90;;;;;;5031501;28;20045;-73
2023/01/05 09:14:22;;;;;;;22.30;4.32;;;10.00;99.90;;;;;;5012183;28;20116;-73
2023/01/05 09:16:48;;;;;;;19.98;5.18;;;10.00;99.90;;;;;;5014303;28;20033;-73
2023/01/05 09:19:20;;;;;;;29.52;6.30;;;9.90;99.90;;;;;;5031396;28;20041;-73
2023/01/05 09:21:46;;;;;;;29.25;6.05;;;10.00;99.90;;;;;;5013866;28;20124;-73
2023/01/05 09:24:18;;;;;;;22.60;4.40;;;10.10;99.90;;;;;;5017828;28;20117;-73
2023/01/05 09:26:44;;;;;;;25.73;5.55;;;10.10;99.90;;;;;;4994258;28;20041;-73
2023/01/05 09:29:18;;;;;;;23.08;4.68;;;10.10;99.90;;;;;;5013344;28;20044;-73
2023/01/05 09:31:44;;;;;;;25.92;4.82;;;10.10;99.90;;;;;;5029719;28;20483;-73
2023/01/05 09:34:17;;;;;;;22.35;5.10;;;10.00;99.90;;;;;;5031302;28;20091;-73
2023/01/05 09:36:43;;;;;;;32.00;5.13;;;10.00;99.90;;;;;;5012421;28;20045;-73
2023/01/05 09:39:17;;;;;;;25.05;6.45;;;9.90;99.90;;;;;;5029607;28;20092;-73
2023/01/05 09:42:04;;;;;;;22.02;5.05;;;9.90;99.90;;;;;;5012441;28;20124;-72
2023/01/05 09:44:37;;;;;;;26.42;5.40;;;9.90;99.90;;;;;;5011864;28;20113;-73
2023/01/05 09:47:37;;;;;;;23.98;4.82;;;9.90;99.90;;;;;;5011772;28;20433;-74
2023/01/05 09:50:19;;;;;;;28.97;5.10;;;10.00;99.90;;;;;;5024843;28;20522;-73
2023/01/05 09:53:07;;;;;;;20.08;4.55;;;10.00;99.90;;;;;;5009850;28;20626;-73
2023/01/05 09:55:35;;;;;;;24.48;5.25;;;10.00;99.90;;;;;;4992181;28;20112;-74
2023/01/05 09:58:13;;;;;;;17.38;4.18;;;10.00;99.90;;;;;;4993527;28;20046;-73
2023/01/05 10:00:45;;;;;;;19.02;4.10;;;10.00;99.90;;;;;;4960276;28;20518;-73
2023/01/05 10:03:26;;;;;;;19.00;3.50;;;10.00;99.90;;;;;;4989219;28;20045;-72
2023/01/05 10:05:52;;;;;;;22.08;4.28;;;10.00;99.90;;;;;;4971918;28;20038;-73
2023/01/05 10:08:41;;;;;;;25.83;4.50;;;10.00;99.90;;;;;;4990246;28;20499;-73
2023/01/05 10:14:16;;;;;;;20.42;4.18;;;10.10;99.90;;;;;;4988127;28;20136;-73
2023/01/05 10:16:45;;;;;;;18.60;3.97;;;10.10;99.90;;;;;;4990249;28;20046;-78
2023/01/05 10:19:23;;;;;;;18.92;3.90;;;10.10;99.90;;;;;;4989997;28;20043;-79
2023/01/05 10:22:30;;;;;;;18.27;3.47;;;10.20;99.90;;;;;;4971060;28;20031;-79
2023/01/05 10:25:25;;;;;;;15.63;4.45;;;10.20;99.90;;;;;;4990422;28;20072;-80
2023/01/05 10:28:12;;;;;;;23.27;5.90;;;10.20;99.90;;;;;;4973299;28;20092;-78
2023/01/05 10:30:51;;;;;;;16.20;4.03;;;10.30;99.90;;;;;;4989499;28;20038;-78
2023/01/05 10:33:36;;;;;;;18.90;5.28;;;10.70;99.90;;;;;;4956518;28;20089;-76
2023/01/05 10:36:34;;;;;;;25.60;4.70;;;10.80;99.90;;;;;;4954300;28;20046;-77
2023/01/05 10:39:12;;;;;;;30.80;9.68;;;10.70;99.90;;;;;;4971592;28;20038;-78
2023/01/05 10:41:56;;;;;;;34.45;14.10;;;10.70;99.90;;;;;;4971904;28;20639;-79
2023/01/05 10:44:37;;;;;;;23.90;4.70;;;10.60;99.90;;;;;;4987598;28;20035;-79
2023/01/05 10:47:14;;;;;;;17.13;3.65;;;10.60;99.90;;;;;;4989935;28;20034;-79
2023/01/05 10:49:44;;;;;;;21.42;4.95;;;10.50;99.90;;;;;;4991830;28;20141;-79
2023/01/05 10:52:29;;;;;;;24.25;4.90;;;10.50;99.90;;;;;;5008305;28;20092;-79
2023/01/05 10:55:01;;;;;;;26.88;4.40;;;10.50;99.90;;;;;;4975519;28;20461;-78
2023/01/05 10:57:38;;;;;;;25.90;5.82;;;10.50;99.90;;;;;;4992048;28;20052;-81
2023/01/05 11:00:14;;;;;;;22.65;3.80;;;10.50;99.90;;;;;;5002347;28;20041;-80
2023/01/05 11:02:57;;;;;;;26.75;5.32;;;10.50;99.90;;;;;;4972794;28;20113;-81
2023/01/05 11:05:35;;;;;;;19.10;5.80;;;10.50;99.90;;;;;;4971656;28;20043;-80
2023/01/05 11:08:11;;;;;;;21.58;4.40;;;10.50;99.90;;;;;;4972998;28;20042;-80
2023/01/05 11:10:56;;;;;;;23.23;3.60;;;10.50;99.90;;;;;;4956467;28;20077;-81
2023/01/05 11:13:44;;;;;;;22.20;4.03;;;10.50;99.90;;;;;;4972701;28;20046;-80
2023/01/05 11:16:19;;;;;;;27.27;5.00;;;10.50;99.90;;;;;;4986768;28;20049;-78
2023/01/05 11:19:03;;;;;;;23.55;3.70;;;10.60;99.90;;;;;;4973597;28;20503;-80
2023/01/05 11:21:38;;;;;;;23.52;3.97;;;10.60;99.90;;;;;;4991570;28;20038;-81
2023/01/05 11:24:30;;;;;;;16.48;3.28;;;10.70;99.90;;;;;;4973695;28;20129;-78
2023/01/05 11:27:04;;;;;;;19.30;3.40;;;10.70;99.90;;;;;;4956879;28;20121;-81
2023/01/05 11:29:31;;;;;;;15.73;3.85;;;10.70;99.90;;;;;;4958107;28;20499;-81
2023/01/05 11:32:11;;;;;;;22.38;5.07;;;10.60;99.90;;;;;;4973523;28;20077;-78
2023/01/05 11:35:29;;;;;;;23.70;4.30;;;10.50;99.90;;;;;;4974077;28;20105;-80
2023/01/05 11:38:11;;;;;;;19.25;4.82;;;10.50;99.90;;;;;;4953085;28;20057;-78
2023/01/05 11:40:42;;;;;;;26.02;12.10;;;10.50;99.90;;;;;;4972017;28;20046;-77
2023/01/05 11:43:18;;;;;;;15.90;3.67;;;10.50;99.90;;;;;;4989626;28;20038;-78
2023/01/05 11:45:51;;;;;;;18.58;3.67;;;10.50;99.90;;;;;;4966713;28;20491;-77
2023/01/05 11:48:31;;;;;;;24.50;4.15;;;10.40;99.90;;;;;;4983401;28;20043;-77
2023/01/05 11:50:57;;;;;;;14.83;4.00;;;10.40;99.90;;;;;;5003664;28;20414;-80
2023/01/05 11:53:45;;;;;;;22.17;4.22;;;10.40;99.90;;;;;;4990225;28;20622;-80
2023/01/05 11:56:24;;;;;;;19.00;3.97;;;10.40;99.90;;;;;;4991110;28;20053;-80
2023/01/05 11:59:01;;;;;;;23.23;4.85;;;10.40;99.90;;;;;;5008670;28;20418;-79
2023/01/05 12:02:11;;;;;;;25.02;6.00;;;10.40;99.90;;;;;;4991962;28;20038;-79
2023/01/05 12:05:01;;;;;;;20.15;5.15;;;10.40;99.90;;;;;;5012498;28;20112;-79
2023/01/05 12:07:52;;;;;;;25.27;5.85;;;10.40;99.90;;;;;;4993870;28;20092;-80
2023/01/05 12:10:26;;;;;;;15.15;3.33;;;10.40;99.90;;;;;;5011623;28;20074;-80
2023/01/05 12:13:34;;;;;;;26.48;5.18;;;10.40;99.90;;;;;;5011866;28;20111;-80
2023/01/05 12:16:21;;;;;;;21.45;5.75;;;10.50;99.90;;;;;;4992995;28;20057;-80
2023/01/05 12:19:14;;;;;;;18.83;5.47;;;10.50;99.90;;;;;;5012215;28;20491;-80
2023/01/05 12:22:26;;;;;;;20.10;5.18;;;10.50;99.90;;;;;;4994678;28;20455;-83
2023/01/05 12:25:20;;;;;;;24.52;4.47;;;10.50;99.90;;;;;;4996446;28;20060;-84
2023/01/05 12:27:58;;;;;;;19.55;3.70;;;10.60;99.90;;;;;;5004707;28;20398;-79
2023/01/05 12:30:36;;;;;;;28.85;4.47;;;10.60;99.90;;;;;;5021378;28;20502;-77
2023/01/05 12:33:34;;;;;;;22.48;4.68;;;10.60;99.90;;;;;;4988232;28;20521;-79
2023/01/05 12:36:22;;;;;;;20.80;4.65;;;10.60;99.90;;;;;;5014718;28;20458;-80
2023/01/05 12:39:33;;;;;;;21.90;4.10;;;10.60;99.90;;;;;;4999970;28;20041;-80
2023/01/05 12:42:32;;;;;;;19.45;3.83;;;10.60;99.90;;;;;;4935986;29;20515;-79
2023/01/05 12:45:10;;;;;;;15.52;3.15;;;10.60;99.90;;;;;;4926204;29;20098;-79
2023/01/05 12:48:09;;;;;;;23.25;3.92;;;10.70;99.90;;;;;;4953778;28;20079;-80
2023/01/05 12:50:43;;;;;;;21.90;4.47;;;10.60;99.90;;;;;;4929505;28;20056;-79
2023/01/05 12:53:41;;;;;;;21.58;4.32;;;10.60;99.90;;;;;;4931724;29;20155;-80
2023/01/05 12:56:28;;;;;;;20.67;4.40;;;10.60;99.90;;;;;;4946929;28;20403;-79
2023/01/05 12:59:29;;;;;;;17.98;3.80;;;10.60;99.90;;;;;;4944624;28;20062;-80
2023/01/05 13:02:13;;;;;;;17.95;4.13;;;10.60;99.90;;;;;;4922516;29;20051;-80
2023/01/05 13:04:52;;;;;;;24.92;4.80;;;10.60;99.90;;;;;;4947174;28;20054;-80
2023/01/05 13:07:30;;;;;;;25.52;5.88;;;10.60;99.90;;;;;;4949962;28;20058;-80
2023/01/05 13:10:04;;;;;;;21.75;5.75;;;10.60;99.90;;;;;;4965824;28;20305;-80
2023/01/05 13:12:39;;;;;;;22.83;5.43;;;10.60;99.90;;;;;;4989811;28;20056;-80
2023/01/05 13:15:17;;;;;;;21.13;4.53;;;10.50;99.90;;;;;;5019248;28;20509;-79
2023/01/05 13:17:56;;;;;;;22.20;4.88;;;10.50;99.90;;;;;;5030399;28;20045;-80
2023/01/05 13:20:25;;;;;;;29.63;6.13;;;10.50;99.90;;;;;;5032764;28;20398;-80
2023/01/05 13:23:09;;;;;;;23.88;4.75;;;10.50;99.90;;;;;;5044002;28;20116;-80
2023/01/05 13:25:43;;;;;;;30.52;6.20;;;10.40;99.90;;;;;;5037014;28;20037;-78
2023/01/05 13:28:24;;;;;;;25.17;5.10;;;10.40;99.90;;;;;;5024016;28;20045;-78
2023/01/05 13:31:00;;;;;;;20.02;5.40;;;10.40;99.90;;;;;;5011751;28;20037;-78
2023/01/05 13:33:47;;;;;;;27.48;7.93;;;10.40;99.90;;;;;;5024762;28;20075;-80
2023/01/05 13:36:44;;;;;;;24.50;8.30;;;10.40;99.90;;;;;;5022222;28;20040;-80
2023/01/05 13:39:26;;;;;;;26.23;5.03;;;10.40;99.90;;;;;;5018518;28;20096;-81
2023/01/05 13:42:19;;;;;;;24.15;9.73;;;10.40;99.90;;;;;;5034141;28;20048;-81
2023/01/05 13:44:54;;;;;;;30.67;8.90;;;10.40;99.90;;;;;;5022442;28;20045;-81
2023/01/05 13:47:36;;;;;;;32.50;8.13;;;10.40;99.90;;;;;;5008310;28;20063;-81
2023/01/05 13:50:22;;;;;;;25.67;8.10;;;10.40;99.90;;;;;;5022154;28;20044;-80
2023/01/05 13:53:23;;;;;;;29.90;6.72;;;10.40;99.90;;;;;;5019962;28;20051;-79
2023/01/05 13:56:08;;;;;;;35.13;8.60;;;10.40;99.90;;;;;;5048884;28;20053;-79
2023/01/05 13:58:48;;;;;;;26.20;5.93;;;10.50;99.90;;;;;;5049142;28;20045;-79